Lower Island Cove, Canada
Current Conditions -  °F | °C
As of 8:38 AM on Friday 24 Oct 2014 (Local Time) from CYYT Reporting Station
Light Rain Light Rain  
Wind Chill: 10°   Ceiling: 2300
Heat Index: 10°   Visibility: 0.75mi
Dew Point: 10°   Wind: 13mph
Humidity: 100%   Direction: 100°E
Pressure: 30.01"   Gusts: 18mph
Location:  48°N, 53°W
Report Text: CYYT 241038Z 10011G16KT 3/4SM R11/P6000FT/U -RA BR OVC023 10/10 A3001 RMK FG5SC3 SLP165
Loading
Personal Weather Stations






























Interactive Weather Map
Tropical Storm Tracking
New forecast layout! Learn more

10-Day Weather Forecast

Advertisements
Track Severe Weather on mobile